createdAt,value
2023-05-15T00:01:47.790Z,16.15
2023-05-15T00:04:14.915Z,16.38
2023-05-15T00:06:43.387Z,17.17
2023-05-15T00:09:11.728Z,15.25
2023-05-15T00:11:39.184Z,14.90
2023-05-15T00:14:06.739Z,14.02
2023-05-15T00:16:34.197Z,14.40
2023-05-15T00:19:07.897Z,15.35
2023-05-15T00:24:02.598Z,12.98
2023-05-15T00:26:32.143Z,14.82
2023-05-15T00:28:59.965Z,14.00
2023-05-15T00:31:27.666Z,12.90
2023-05-15T00:33:56.005Z,13.70
2023-05-15T00:36:26.228Z,12.80
2023-05-15T00:38:59.641Z,13.40
2023-05-15T00:41:29.052Z,14.00
2023-05-15T00:43:58.218Z,12.15
2023-05-15T00:46:28.671Z,12.80
2023-05-15T00:48:57.107Z,12.90
2023-05-15T00:51:27.193Z,12.65
2023-05-15T00:53:56.972Z,12.40
2023-05-15T00:56:25.271Z,12.70
2023-05-15T00:58:54.424Z,12.48
2023-05-15T01:01:22.176Z,13.27
2023-05-15T01:03:49.335Z,13.93
2023-05-15T01:06:16.440Z,12.57
2023-05-15T01:08:49.455Z,12.90
2023-05-15T01:11:18.613Z,14.30
2023-05-15T01:13:47.946Z,13.95
2023-05-15T01:16:15.587Z,13.52
2023-05-15T01:18:45.089Z,13.88
2023-05-15T01:21:35.895Z,12.80
2023-05-15T01:24:43.390Z,14.27
2023-05-15T01:27:52.878Z,12.23
2023-05-15T01:30:20.306Z,12.43
2023-05-15T01:33:18.708Z,13.80
2023-05-15T01:36:06.384Z,12.63
2023-05-15T01:38:39.593Z,15.05
2023-05-15T01:41:23.025Z,13.25
2023-05-15T01:43:56.900Z,13.13
2023-05-15T01:46:26.084Z,12.65
2023-05-15T01:48:55.429Z,12.82
2023-05-15T01:51:25.258Z,12.55
2023-05-15T01:53:53.428Z,12.85
2023-05-15T01:56:23.413Z,12.05
2023-05-15T01:58:52.788Z,12.55
2023-05-15T02:01:20.382Z,12.23
2023-05-15T02:03:48.192Z,11.68
2023-05-15T02:06:16.816Z,11.73
2023-05-15T02:08:45.654Z,12.23
2023-05-15T02:11:14.284Z,12.77
2023-05-15T02:13:43.686Z,12.63
2023-05-15T02:16:11.557Z,12.57
2023-05-15T02:18:38.839Z,12.00
2023-05-15T02:21:06.296Z,12.55
2023-05-15T02:23:35.240Z,12.13
2023-05-15T02:26:23.424Z,13.38
2023-05-15T02:29:06.166Z,12.95
2023-05-15T02:31:59.434Z,12.35
2023-05-15T02:35:03.711Z,15.55
2023-05-15T02:37:35.429Z,13.73
2023-05-15T02:40:07.361Z,13.25
2023-05-15T02:42:36.605Z,13.40
2023-05-15T02:45:06.060Z,13.80
2023-05-15T02:47:34.302Z,14.38
2023-05-15T02:50:02.982Z,14.68
2023-05-15T02:52:30.623Z,13.98
2023-05-15T02:54:58.867Z,13.98
2023-05-15T02:57:27.590Z,14.77
2023-05-15T02:59:56.369Z,14.40
2023-05-15T03:02:24.057Z,13.38
2023-05-15T03:04:54.356Z,15.18
2023-05-15T03:07:21.995Z,14.50
2023-05-15T03:09:49.271Z,15.30
2023-05-15T03:12:23.406Z,15.88
2023-05-15T03:14:50.949Z,16.88
2023-05-15T03:17:18.363Z,17.50
2023-05-15T03:19:46.231Z,14.43
2023-05-15T03:22:13.950Z,14.70
2023-05-15T03:24:47.554Z,14.27
2023-05-15T03:27:16.137Z,14.80
2023-05-15T03:29:44.961Z,14.10
2023-05-15T03:32:14.550Z,13.20
2023-05-15T03:34:41.769Z,14.30
2023-05-15T03:37:09.207Z,14.05
2023-05-15T03:39:37.738Z,13.60
2023-05-15T03:42:06.515Z,13.10
2023-05-15T03:44:35.377Z,13.75
2023-05-15T03:47:02.926Z,12.57
2023-05-15T03:49:30.096Z,13.00
2023-05-15T03:51:58.261Z,12.75
2023-05-15T03:54:25.808Z,12.93
2023-05-15T03:56:59.251Z,12.65
2023-05-15T03:59:26.532Z,13.10
2023-05-15T04:02:04.224Z,14.85
2023-05-15T04:04:33.224Z,14.10
2023-05-15T04:07:01.176Z,12.57
2023-05-15T04:09:29.707Z,15.00
2023-05-15T04:12:00.273Z,14.60
2023-05-15T04:14:27.775Z,13.07
2023-05-15T04:16:56.172Z,14.95
2023-05-15T04:19:23.743Z,14.25
2023-05-15T04:21:52.248Z,15.27
2023-05-15T04:24:19.669Z,13.73
2023-05-15T04:26:47.353Z,12.57
2023-05-15T04:29:15.526Z,13.05
2023-05-15T04:31:43.092Z,12.15
2023-05-15T04:34:10.455Z,12.93
2023-05-15T04:36:40.599Z,13.75
2023-05-15T04:39:10.224Z,13.80
2023-05-15T04:41:37.445Z,13.35
2023-05-15T04:44:05.042Z,13.60
2023-05-15T04:46:35.143Z,13.60
2023-05-15T04:49:02.418Z,14.85
2023-05-15T04:51:29.861Z,16.92
2023-05-15T04:53:57.258Z,14.15
2023-05-15T04:56:24.709Z,14.77
2023-05-15T04:58:53.282Z,14.88
2023-05-15T05:01:20.776Z,14.02
2023-05-15T05:03:47.790Z,14.07
2023-05-15T05:06:15.049Z,15.40
2023-05-15T05:08:42.537Z,15.98
2023-05-15T05:11:10.105Z,20.45
2023-05-15T05:13:37.503Z,18.38
2023-05-15T05:16:05.250Z,18.23
2023-05-15T05:18:34.499Z,18.23
2023-05-15T05:21:04.274Z,19.00
2023-05-15T05:23:37.537Z,20.08
2023-05-15T05:26:06.371Z,21.75
2023-05-15T05:28:34.076Z,23.55
2023-05-15T05:31:12.263Z,26.70
2023-05-15T05:33:39.646Z,26.38
2023-05-15T05:36:07.563Z,26.05
2023-05-15T05:38:37.161Z,35.10
2023-05-15T05:41:04.911Z,28.48
2023-05-15T05:43:34.044Z,29.42
2023-05-15T05:46:02.586Z,31.25
2023-05-15T05:48:31.145Z,33.58
2023-05-15T05:50:58.742Z,33.13
2023-05-15T05:53:28.128Z,35.08
2023-05-15T05:55:55.565Z,35.60
2023-05-15T05:58:25.952Z,36.20
2023-05-15T06:00:54.536Z,38.92
2023-05-15T06:03:23.319Z,37.72
2023-05-15T06:05:51.541Z,38.83
2023-05-15T06:08:18.980Z,39.97
2023-05-15T06:10:46.553Z,41.47
2023-05-15T06:13:15.241Z,37.95
2023-05-15T06:15:42.945Z,37.38
2023-05-15T06:18:10.515Z,40.47
2023-05-15T06:20:38.547Z,40.65
2023-05-15T06:23:06.044Z,42.45
2023-05-15T06:25:33.223Z,41.63
2023-05-15T06:28:01.127Z,43.75
2023-05-15T06:30:28.599Z,40.75
2023-05-15T06:32:56.220Z,39.97
2023-05-15T06:35:26.803Z,40.38
2023-05-15T06:37:54.933Z,43.13
2023-05-15T06:40:25.258Z,39.75
2023-05-15T06:42:53.065Z,37.00
2023-05-15T06:45:20.576Z,35.65
2023-05-15T06:47:48.040Z,40.88
2023-05-15T06:50:15.549Z,39.03
2023-05-15T06:52:43.907Z,38.05
2023-05-15T06:55:13.467Z,39.00
2023-05-15T06:57:41.827Z,37.17
2023-05-15T07:00:10.987Z,37.88
2023-05-15T07:02:38.355Z,35.17
2023-05-15T07:05:07.117Z,34.33
2023-05-15T07:07:34.744Z,36.47
2023-05-15T07:10:02.342Z,37.35
2023-05-15T07:12:29.921Z,33.65
2023-05-15T07:15:03.474Z,35.90
2023-05-15T07:17:33.854Z,32.50
2023-05-15T07:20:01.382Z,33.08
2023-05-15T07:22:29.473Z,32.20
2023-05-15T07:25:02.936Z,31.60
2023-05-15T07:27:31.393Z,30.70
2023-05-15T07:29:58.776Z,31.52
2023-05-15T07:32:26.246Z,32.67
2023-05-15T07:34:53.556Z,32.42
2023-05-15T07:37:21.228Z,29.85
2023-05-15T07:39:48.638Z,28.58
2023-05-15T07:42:18.139Z,28.38
2023-05-15T07:44:48.766Z,30.77
2023-05-15T07:47:17.310Z,30.20
2023-05-15T07:49:44.687Z,27.98
2023-05-15T07:52:12.345Z,31.15
2023-05-15T07:54:42.410Z,31.60
2023-05-15T07:57:15.863Z,46.42
2023-05-15T07:59:43.374Z,28.92
2023-05-15T08:02:10.782Z,29.27
2023-05-15T08:04:38.265Z,26.23
2023-05-15T08:07:07.507Z,25.73
2023-05-15T08:09:35.138Z,25.58
2023-05-15T08:12:21.551Z,32.92
2023-05-15T08:14:56.665Z,28.17
2023-05-15T08:17:25.518Z,30.30
2023-05-15T08:19:54.291Z,31.08
2023-05-15T08:22:21.468Z,24.38
2023-05-15T08:24:49.423Z,22.50
2023-05-15T08:27:16.729Z,20.88
2023-05-15T08:29:45.498Z,22.70
2023-05-15T08:32:12.868Z,23.92
2023-05-15T08:34:40.430Z,24.95
2023-05-15T08:37:07.947Z,21.45
2023-05-15T08:39:35.279Z,21.23
2023-05-15T08:42:35.511Z,22.52
2023-05-15T08:45:03.596Z,23.70
2023-05-15T08:47:36.090Z,23.08
2023-05-15T08:50:07.149Z,23.38
2023-05-15T08:52:35.140Z,22.45
2023-05-15T08:55:04.219Z,23.80
2023-05-15T08:57:33.951Z,22.17
2023-05-15T09:00:09.205Z,21.13
2023-05-15T09:02:37.691Z,20.98
2023-05-15T09:05:08.582Z,20.27
2023-05-15T09:07:36.483Z,22.35
2023-05-15T09:10:11.026Z,19.20
2023-05-15T09:12:44.096Z,17.17
2023-05-15T09:15:18.147Z,18.58
2023-05-15T09:17:46.585Z,15.82
2023-05-15T09:20:35.417Z,15.27
2023-05-15T09:23:05.481Z,16.85
2023-05-15T09:25:44.549Z,13.30
2023-05-15T09:28:34.152Z,16.70
2023-05-15T09:31:04.237Z,10.93
2023-05-15T09:33:39.487Z,11.00
2023-05-15T09:36:09.289Z,10.23
2023-05-15T09:38:48.601Z,10.98
2023-05-15T09:41:26.808Z,12.60
2023-05-15T09:43:57.040Z,9.30
2023-05-15T09:46:24.702Z,7.82
2023-05-15T09:48:56.391Z,9.73
2023-05-15T09:51:24.052Z,9.32
2023-05-15T09:53:54.563Z,9.77
2023-05-15T09:56:22.803Z,9.10
2023-05-15T09:58:54.952Z,9.75
2023-05-15T10:01:24.277Z,12.90
2023-05-15T10:04:02.035Z,10.38
2023-05-15T10:06:37.339Z,12.32
2023-05-15T10:09:05.511Z,9.82
2023-05-15T10:11:40.922Z,8.77
2023-05-15T10:14:11.390Z,9.18
2023-05-15T10:16:40.903Z,9.93
2023-05-15T10:19:18.906Z,9.60
2023-05-15T10:21:48.582Z,9.93
2023-05-15T10:24:19.702Z,10.73
2023-05-15T10:26:48.629Z,10.13
2023-05-15T10:29:19.669Z,10.55
2023-05-15T10:31:49.386Z,9.98
2023-05-15T10:34:19.338Z,11.60
2023-05-15T10:36:50.617Z,9.73
2023-05-15T10:39:21.016Z,10.30
2023-05-15T10:41:51.254Z,9.48
2023-05-15T10:44:19.826Z,10.27
2023-05-15T10:46:48.222Z,9.27
2023-05-15T10:49:15.864Z,11.68
2023-05-15T10:51:43.394Z,8.35
2023-05-15T10:54:10.751Z,8.90
2023-05-15T10:56:40.308Z,13.02
2023-05-15T10:59:11.749Z,5.78
2023-05-15T11:01:41.174Z,6.70
2023-05-15T11:04:19.069Z,6.90
2023-05-15T11:06:50.959Z,7.50
2023-05-15T11:09:28.100Z,8.88
2023-05-15T11:12:20.780Z,10.70
2023-05-15T11:14:57.383Z,9.45
2023-05-15T11:17:24.948Z,3.55
2023-05-15T11:19:53.305Z,4.43
2023-05-15T11:22:23.300Z,5.32
2023-05-15T11:25:10.771Z,5.47
2023-05-15T11:27:42.028Z,4.95
2023-05-15T11:30:22.738Z,5.57
2023-05-15T11:33:11.624Z,5.07
2023-05-15T11:35:40.441Z,5.60
2023-05-15T11:38:15.344Z,6.95
2023-05-15T11:40:58.768Z,4.97
2023-05-15T11:43:32.587Z,7.78
2023-05-15T11:46:12.986Z,11.63
2023-05-15T11:48:45.002Z,5.57
2023-05-15T11:51:21.604Z,4.32
2023-05-15T11:53:54.118Z,8.82
2023-05-15T11:56:24.066Z,5.45
2023-05-15T11:59:01.599Z,3.75
2023-05-15T12:01:48.654Z,6.38
2023-05-15T12:04:17.124Z,7.65
2023-05-15T12:06:47.694Z,4.90
2023-05-15T12:09:17.116Z,4.63
2023-05-15T12:11:54.853Z,7.25
2023-05-15T12:14:30.111Z,6.60
2023-05-15T12:17:07.805Z,5.60
2023-05-15T12:19:37.625Z,6.80
2023-05-15T12:22:08.740Z,5.13
2023-05-15T12:24:40.150Z,5.07
2023-05-15T12:27:10.274Z,3.10
2023-05-15T12:29:38.821Z,3.88
2023-05-15T12:32:08.514Z,5.55
2023-05-15T12:34:37.512Z,4.60
2023-05-15T12:37:07.067Z,5.18
2023-05-15T12:39:34.557Z,4.07
2023-05-15T12:42:01.888Z,3.33
2023-05-15T12:44:32.299Z,4.00
2023-05-15T12:46:59.774Z,4.70
2023-05-15T12:49:28.517Z,3.63
2023-05-15T12:51:55.927Z,3.50
2023-05-15T12:54:24.574Z,2.78
2023-05-15T12:56:52.013Z,5.35
2023-05-15T12:59:20.355Z,3.58
2023-05-15T13:01:47.805Z,5.15
2023-05-15T13:04:16.801Z,3.30
2023-05-15T13:06:46.860Z,3.05
2023-05-15T13:09:21.552Z,4.05
2023-05-15T13:11:49.255Z,4.20
2023-05-15T13:14:21.461Z,7.18
2023-05-15T13:16:48.826Z,5.15
2023-05-15T13:19:17.112Z,6.38
2023-05-15T13:21:46.074Z,4.78
2023-05-15T13:24:13.755Z,17.17
2023-05-15T13:26:41.813Z,5.35
2023-05-15T13:29:09.206Z,5.68
2023-05-15T13:31:36.712Z,3.85
2023-05-15T13:34:04.089Z,5.72
2023-05-15T13:36:31.819Z,5.88
2023-05-15T13:39:00.023Z,25.13
2023-05-15T13:41:27.493Z,3.90
2023-05-15T13:43:54.943Z,2.40
2023-05-15T13:46:23.530Z,4.05
2023-05-15T13:48:51.067Z,3.30
2023-05-15T13:51:19.402Z,5.68
2023-05-15T13:53:46.710Z,3.67
2023-05-15T13:56:14.343Z,3.42
2023-05-15T13:58:42.775Z,8.98
2023-05-15T14:01:10.370Z,26.48
2023-05-15T14:03:37.596Z,6.03
2023-05-15T14:06:06.230Z,29.15
2023-05-15T14:08:34.203Z,7.20
2023-05-15T14:11:02.025Z,5.57
2023-05-15T14:13:33.446Z,6.03
2023-05-15T14:16:01.055Z,6.03
2023-05-15T14:18:31.798Z,5.35
2023-05-15T14:20:59.549Z,5.80
2023-05-15T14:23:27.106Z,4.20
2023-05-15T14:25:54.426Z,3.40
2023-05-15T14:28:22.035Z,4.00
2023-05-15T14:30:49.347Z,3.75
2023-05-15T14:33:16.829Z,2.88
2023-05-15T14:35:44.357Z,4.35
2023-05-15T14:38:12.634Z,4.03
2023-05-15T14:40:43.401Z,6.93
2023-05-15T14:43:12.229Z,6.90
2023-05-15T14:45:39.761Z,3.83
2023-05-15T14:48:07.241Z,6.78
2023-05-15T14:50:34.650Z,6.70
2023-05-15T14:53:02.184Z,4.95
2023-05-15T14:55:29.562Z,5.80
2023-05-15T14:57:58.502Z,5.28
2023-05-15T15:00:26.321Z,4.55
2023-05-15T15:02:54.328Z,4.50
2023-05-15T15:05:23.297Z,11.13
2023-05-15T15:08:11.183Z,5.60
2023-05-15T15:10:40.852Z,5.65
2023-05-15T15:13:10.347Z,4.78
2023-05-15T15:15:38.003Z,4.78
2023-05-15T15:18:05.331Z,3.92
2023-05-15T15:20:33.035Z,4.20
2023-05-15T15:23:00.137Z,5.78
2023-05-15T15:25:28.482Z,6.43
2023-05-15T15:27:58.116Z,6.63
2023-05-15T15:30:26.040Z,3.97
2023-05-15T15:32:56.099Z,6.85
2023-05-15T15:35:24.853Z,4.82
2023-05-15T15:37:53.557Z,6.13
2023-05-15T15:40:24.335Z,4.15
2023-05-15T15:42:54.495Z,4.05
2023-05-15T15:45:21.743Z,3.10
2023-05-15T15:47:49.289Z,3.22
2023-05-15T15:50:17.599Z,3.95
2023-05-15T15:52:45.149Z,4.13
2023-05-15T15:55:12.537Z,3.35
2023-05-15T15:57:40.119Z,3.97
2023-05-15T16:00:10.044Z,3.65
2023-05-15T16:02:37.583Z,3.92
2023-05-15T16:05:05.263Z,3.65
2023-05-15T16:07:39.524Z,6.95
2023-05-15T16:10:13.122Z,2.60
2023-05-15T16:12:42.790Z,2.75
2023-05-15T16:17:42.223Z,16.48
2023-05-15T16:20:11.633Z,4.30
2023-05-15T16:22:41.989Z,3.10
2023-05-15T16:25:15.360Z,10.65
2023-05-15T16:27:42.838Z,4.45
2023-05-15T16:30:11.840Z,4.25
2023-05-15T16:32:39.928Z,3.72
2023-05-15T16:35:08.017Z,4.30
2023-05-15T16:37:35.227Z,6.38
2023-05-15T16:40:03.170Z,4.57
2023-05-15T16:42:34.943Z,4.70
2023-05-15T16:45:02.183Z,4.90
2023-05-15T16:47:29.683Z,4.88
2023-05-15T16:49:58.204Z,6.45
2023-05-15T16:52:25.691Z,5.72
2023-05-15T16:54:55.155Z,6.00
2023-05-15T16:57:23.581Z,4.35
2023-05-15T16:59:51.118Z,9.75
2023-05-15T17:02:19.646Z,6.82
2023-05-15T17:04:53.594Z,5.15
2023-05-15T17:07:21.758Z,5.00
2023-05-15T17:09:50.046Z,4.93
2023-05-15T17:12:17.596Z,6.47
2023-05-15T17:14:45.161Z,9.00
2023-05-15T17:17:15.120Z,5.88
2023-05-15T17:19:42.452Z,10.63
2023-05-15T17:22:09.906Z,8.23
2023-05-15T17:24:50.182Z,8.88
2023-05-15T17:27:20.805Z,5.05
2023-05-15T17:29:49.517Z,7.38
2023-05-15T17:32:18.286Z,9.80
2023-05-15T17:34:46.427Z,7.07
2023-05-15T17:37:15.154Z,5.82
2023-05-15T17:39:43.168Z,8.50
2023-05-15T17:42:11.906Z,6.15
2023-05-15T17:44:39.507Z,6.32
2023-05-15T17:47:12.859Z,5.53
2023-05-15T17:49:42.352Z,5.72
2023-05-15T17:52:10.939Z,7.20
2023-05-15T17:54:38.217Z,9.07
2023-05-15T17:57:06.739Z,11.73
2023-05-15T17:59:34.504Z,6.63
2023-05-15T18:02:03.273Z,7.30
2023-05-15T18:04:30.729Z,3.95
2023-05-15T18:06:59.302Z,8.63
2023-05-15T18:09:28.695Z,10.32
2023-05-15T18:11:58.228Z,9.50
2023-05-15T18:14:25.727Z,9.55
2023-05-15T18:16:53.026Z,6.53
2023-05-15T18:19:20.761Z,5.55
2023-05-15T18:21:48.528Z,5.22
2023-05-15T18:24:17.155Z,5.40
2023-05-15T18:26:45.469Z,6.43
2023-05-15T18:29:13.116Z,29.33
2023-05-15T18:31:40.356Z,15.23
2023-05-15T18:34:08.776Z,7.50
2023-05-15T18:36:36.251Z,4.53
2023-05-15T18:39:04.068Z,6.05
2023-05-15T18:41:31.180Z,8.32
2023-05-15T18:43:59.712Z,10.20
2023-05-15T18:46:28.616Z,6.25
2023-05-15T18:48:56.308Z,5.72
2023-05-15T18:51:24.512Z,5.63
2023-05-15T18:53:52.255Z,5.75
2023-05-15T18:56:19.548Z,4.78
2023-05-15T18:58:47.697Z,4.30
2023-05-15T19:01:15.988Z,5.30
2023-05-15T19:03:43.261Z,4.38
2023-05-15T19:06:13.715Z,4.60
2023-05-15T19:08:42.992Z,4.70
2023-05-15T19:11:10.385Z,5.40
2023-05-15T19:13:38.784Z,8.77
2023-05-15T19:16:08.668Z,5.22
2023-05-15T19:18:35.969Z,5.70
2023-05-15T19:21:05.320Z,5.32
2023-05-15T19:23:32.968Z,5.32
2023-05-15T19:26:00.389Z,6.47
2023-05-15T19:28:28.238Z,5.45
2023-05-15T19:30:55.737Z,5.90
2023-05-15T19:33:23.441Z,8.30
2023-05-15T19:35:50.573Z,6.35
2023-05-15T19:38:19.481Z,6.50
2023-05-15T19:40:46.993Z,6.28
2023-05-15T19:43:15.681Z,5.80
2023-05-15T19:45:43.787Z,7.18
2023-05-15T19:48:12.856Z,6.85
2023-05-15T19:50:40.586Z,7.72
2023-05-15T19:53:14.296Z,11.10
2023-05-15T19:58:11.245Z,8.20
2023-05-15T20:00:38.664Z,7.53
2023-05-15T20:03:06.128Z,7.72
2023-05-15T20:05:33.913Z,7.07
2023-05-15T20:08:01.332Z,12.85
2023-05-15T20:10:28.789Z,6.82
2023-05-15T20:12:56.368Z,6.38
2023-05-15T20:15:25.876Z,11.15
2023-05-15T20:17:54.003Z,7.72
2023-05-15T20:20:33.140Z,6.65
2023-05-15T20:23:01.427Z,6.05
2023-05-15T20:25:29.815Z,6.07
2023-05-15T20:28:05.565Z,5.93
2023-05-15T20:30:33.174Z,6.43
2023-05-15T20:33:00.782Z,6.15
2023-05-15T20:35:30.016Z,5.80
2023-05-15T20:38:00.170Z,6.50
2023-05-15T20:40:27.937Z,6.78
2023-05-15T20:43:07.717Z,7.45
2023-05-15T20:45:37.279Z,7.53
2023-05-15T20:48:05.845Z,7.20
2023-05-15T20:50:33.139Z,6.93
2023-05-15T20:53:00.648Z,7.43
2023-05-15T20:55:29.148Z,8.13
2023-05-15T20:57:56.661Z,7.00
2023-05-15T21:00:24.255Z,7.32
2023-05-15T21:02:52.125Z,6.20
2023-05-15T21:05:19.432Z,7.32
2023-05-15T21:07:46.912Z,8.23
2023-05-15T21:10:14.371Z,22.45
2023-05-15T21:12:42.882Z,10.18
2023-05-15T21:15:10.494Z,7.38
2023-05-15T21:17:37.813Z,9.75
2023-05-15T21:20:05.677Z,7.18
2023-05-15T21:22:33.598Z,11.00
2023-05-15T21:25:01.275Z,12.13
2023-05-15T21:27:28.680Z,10.57
2023-05-15T21:30:04.581Z,11.48
2023-05-15T21:32:32.918Z,9.35
2023-05-15T21:35:02.320Z,8.20
2023-05-15T21:37:29.806Z,9.05
2023-05-15T21:39:58.194Z,9.00
2023-05-15T21:42:26.743Z,8.38
2023-05-15T21:45:00.330Z,7.75
2023-05-15T21:47:27.701Z,9.40
2023-05-15T21:49:55.099Z,9.50
2023-05-15T21:52:22.861Z,8.90
2023-05-15T21:54:50.340Z,8.77
2023-05-15T21:57:24.840Z,8.93
2023-05-15T21:59:53.199Z,9.20
2023-05-15T22:02:22.829Z,8.68
2023-05-15T22:04:50.166Z,9.48
2023-05-15T22:07:17.830Z,8.95
2023-05-15T22:09:45.383Z,9.35
2023-05-15T22:12:12.586Z,9.13
2023-05-15T22:14:54.522Z,8.93
2023-05-15T22:17:30.875Z,8.93
2023-05-15T22:20:07.929Z,10.27
2023-05-15T22:22:36.260Z,8.65
2023-05-15T22:25:04.096Z,10.75
2023-05-15T22:27:32.146Z,14.98
2023-05-15T22:29:59.870Z,11.88
2023-05-15T22:32:27.112Z,12.23
2023-05-15T22:34:56.119Z,12.93
2023-05-15T22:37:25.501Z,15.60
2023-05-15T22:39:59.002Z,10.10
2023-05-15T22:42:28.375Z,12.52
2023-05-15T22:44:57.741Z,14.48
2023-05-15T22:47:38.430Z,11.65
2023-05-15T22:50:06.253Z,11.05
2023-05-15T22:52:33.801Z,11.25
2023-05-15T22:55:01.158Z,11.40
2023-05-15T22:57:29.326Z,14.13
2023-05-15T22:59:56.702Z,11.50
2023-05-15T23:02:25.118Z,10.93
2023-05-15T23:04:53.553Z,11.07
2023-05-15T23:07:21.002Z,10.68
2023-05-15T23:09:48.496Z,10.88
2023-05-15T23:12:15.919Z,10.23
2023-05-15T23:14:45.503Z,10.15
2023-05-15T23:17:13.020Z,10.25
2023-05-15T23:19:41.067Z,9.55
2023-05-15T23:22:12.719Z,11.30
2023-05-15T23:24:40.935Z,10.38
2023-05-15T23:27:09.429Z,9.85
2023-05-15T23:29:36.944Z,10.00
2023-05-15T23:32:07.644Z,10.10
2023-05-15T23:34:34.829Z,10.18
2023-05-15T23:37:02.512Z,10.18
2023-05-15T23:39:29.774Z,11.88
2023-05-15T23:41:57.566Z,11.18
2023-05-15T23:44:24.686Z,10.10
2023-05-15T23:46:52.064Z,10.77
2023-05-15T23:49:19.552Z,10.32
2023-05-15T23:51:47.145Z,10.77
2023-05-15T23:54:14.494Z,11.60
2023-05-15T23:56:41.927Z,11.38
2023-05-15T23:59:09.458Z,12.07
